createdAt,value
2018-11-05T00:01:35.382Z,48.63
2018-11-05T00:04:04.142Z,50.23
2018-11-05T00:06:32.830Z,57.40
2018-11-05T00:09:01.463Z,40.93
2018-11-05T00:11:30.183Z,47.47
2018-11-05T00:13:58.860Z,47.50
2018-11-05T00:16:27.536Z,50.57
2018-11-05T00:18:56.267Z,48.07
2018-11-05T00:21:24.921Z,51.63
2018-11-05T00:23:53.635Z,46.67
2018-11-05T00:26:22.269Z,52.00
2018-11-05T00:28:50.892Z,50.20
2018-11-05T00:31:19.573Z,48.43
2018-11-05T00:33:48.282Z,45.60
2018-11-05T00:36:16.945Z,43.00
2018-11-05T00:38:45.561Z,54.67
2018-11-05T00:41:14.249Z,50.60
2018-11-05T00:43:42.899Z,46.17
2018-11-05T00:46:11.553Z,47.80
2018-11-05T00:48:40.318Z,73.17
2018-11-05T00:51:09.012Z,56.83
2018-11-05T00:53:37.692Z,67.50
2018-11-05T00:56:06.465Z,58.60
2018-11-05T00:58:35.125Z,48.30
2018-11-05T01:01:03.805Z,55.57
2018-11-05T01:03:32.468Z,63.67
2018-11-05T01:06:01.047Z,58.17
2018-11-05T01:08:29.728Z,52.97
2018-11-05T01:10:58.436Z,47.33
2018-11-05T01:13:27.094Z,44.60
2018-11-05T01:15:55.740Z,50.60
2018-11-05T01:18:24.384Z,45.00
2018-11-05T01:20:53.076Z,47.70
2018-11-05T01:23:21.705Z,48.60
2018-11-05T01:25:50.375Z,50.03
2018-11-05T01:28:19.027Z,60.67
2018-11-05T01:30:47.630Z,47.77
2018-11-05T01:33:16.350Z,57.23
2018-11-05T01:35:45.016Z,50.80
2018-11-05T01:38:13.706Z,64.90
2018-11-05T01:40:42.328Z,59.43
2018-11-05T01:43:11.168Z,60.70
2018-11-05T01:45:39.816Z,54.87
2018-11-05T01:48:08.436Z,66.50
2018-11-05T01:50:37.158Z,71.80
2018-11-05T01:53:06.291Z,79.20
2018-11-05T01:55:34.968Z,58.43
2018-11-05T01:58:03.663Z,61.07
2018-11-05T02:00:32.321Z,54.53
2018-11-05T02:03:00.973Z,64.67
2018-11-05T02:05:29.661Z,66.33
2018-11-05T02:07:58.309Z,57.07
2018-11-05T02:10:27.104Z,52.77
2018-11-05T02:12:55.660Z,50.67
2018-11-05T02:15:24.305Z,61.50
2018-11-05T02:17:53.048Z,52.37
2018-11-05T02:20:21.692Z,56.80
2018-11-05T02:22:50.361Z,84.33
2018-11-05T02:25:18.975Z,54.33
2018-11-05T02:27:47.621Z,59.17
2018-11-05T02:30:17.760Z,60.83
2018-11-05T02:32:46.963Z,59.80
2018-11-05T02:35:16.574Z,61.90
2018-11-05T02:37:46.012Z,82.57
2018-11-05T02:40:16.909Z,102.03
2018-11-05T02:42:46.000Z,108.97
2018-11-05T02:45:15.658Z,81.60
2018-11-05T02:47:44.315Z,76.10
2018-11-05T02:50:13.606Z,78.53
2018-11-05T02:52:43.189Z,66.97
2018-11-05T02:55:11.890Z,67.63
2018-11-05T02:57:40.524Z,72.47
2018-11-05T03:00:11.678Z,91.67
2018-11-05T03:02:40.497Z,83.27
2018-11-05T03:05:11.346Z,86.27
2018-11-05T03:07:39.996Z,94.00
2018-11-05T03:10:09.828Z,93.33
2018-11-05T03:12:38.780Z,86.30
2018-11-05T03:15:08.658Z,66.53
2018-11-05T03:17:37.429Z,67.40
2018-11-05T03:20:07.220Z,71.90
2018-11-05T03:22:35.884Z,83.03
2018-11-05T03:25:04.866Z,80.03
2018-11-05T03:27:33.585Z,109.57
2018-11-05T03:30:02.309Z,90.43
2018-11-05T03:32:30.985Z,118.27
2018-11-05T03:34:59.613Z,120.40
2018-11-05T03:37:28.317Z,111.57
2018-11-05T03:39:57.006Z,89.63
2018-11-05T03:42:25.668Z,94.50
2018-11-05T03:44:54.295Z,92.40
2018-11-05T03:47:22.965Z,126.27
2018-11-05T03:49:51.635Z,125.30
2018-11-05T03:52:20.320Z,131.83
2018-11-05T03:54:49.033Z,122.13
2018-11-05T03:57:17.689Z,131.70
2018-11-05T03:59:46.819Z,109.70
2018-11-05T04:02:15.488Z,120.70
2018-11-05T04:04:44.513Z,120.80
2018-11-05T04:07:13.195Z,101.87
2018-11-05T04:09:41.910Z,100.47
2018-11-05T04:12:10.626Z,118.87
2018-11-05T04:14:39.312Z,105.13
2018-11-05T04:17:08.022Z,102.00
2018-11-05T04:19:36.701Z,108.00
2018-11-05T04:22:05.440Z,100.30
2018-11-05T04:24:34.131Z,109.20
2018-11-05T04:27:02.794Z,94.70
2018-11-05T04:29:31.445Z,100.60
2018-11-05T04:32:00.101Z,119.27
2018-11-05T04:34:28.768Z,121.23
2018-11-05T04:36:57.449Z,114.23
2018-11-05T04:39:26.116Z,122.77
2018-11-05T04:41:54.722Z,106.00
2018-11-05T04:44:23.337Z,127.97
2018-11-05T04:46:51.975Z,101.90
2018-11-05T04:49:20.564Z,143.07
2018-11-05T04:51:49.338Z,126.03
2018-11-05T04:54:17.985Z,146.40
2018-11-05T04:56:46.641Z,164.33
2018-11-05T04:59:15.330Z,162.47
2018-11-05T05:01:43.962Z,148.73
2018-11-05T05:04:12.594Z,121.13
2018-11-05T05:06:41.268Z,126.63
2018-11-05T05:09:11.751Z,148.83
2018-11-05T05:11:40.565Z,158.17
2018-11-05T05:14:09.294Z,153.80
2018-11-05T05:16:38.441Z,167.60
2018-11-05T05:19:07.244Z,138.07
2018-11-05T05:21:35.868Z,116.73
2018-11-05T05:24:04.613Z,155.77
2018-11-05T05:26:33.276Z,162.20
2018-11-05T05:29:01.933Z,148.50
2018-11-05T05:31:30.641Z,161.77
2018-11-05T05:33:59.264Z,154.70
2018-11-05T05:36:28.029Z,150.73
2018-11-05T05:38:56.678Z,158.10
2018-11-05T05:41:25.401Z,166.53
2018-11-05T05:43:53.993Z,169.60
2018-11-05T05:46:22.666Z,154.33
2018-11-05T05:48:51.353Z,156.13
2018-11-05T05:51:19.970Z,133.53
2018-11-05T05:53:48.638Z,149.13
2018-11-05T05:56:21.230Z,165.60
2018-11-05T05:58:49.967Z,154.73
2018-11-05T06:01:18.592Z,157.23
2018-11-05T06:03:47.319Z,160.20
2018-11-05T06:06:16.104Z,152.43
2018-11-05T06:08:44.690Z,149.53
2018-11-05T06:11:13.295Z,141.40
2018-11-05T06:13:41.960Z,138.57
2018-11-05T06:16:10.609Z,129.37
2018-11-05T06:18:39.255Z,139.50
2018-11-05T06:21:07.909Z,137.80
2018-11-05T06:23:36.589Z,172.47
2018-11-05T06:26:05.415Z,172.53
2018-11-05T06:28:34.135Z,170.00
2018-11-05T06:31:02.777Z,158.23
2018-11-05T06:33:31.464Z,173.80
2018-11-05T06:36:00.146Z,176.23
2018-11-05T06:38:28.749Z,175.07
2018-11-05T06:40:57.425Z,170.17
2018-11-05T06:43:26.113Z,174.70
2018-11-05T06:45:54.719Z,178.70
2018-11-05T06:48:23.411Z,167.80
2018-11-05T06:50:52.085Z,160.03
2018-11-05T06:53:21.144Z,191.20
2018-11-05T06:55:49.859Z,151.87
2018-11-05T06:58:18.510Z,177.77
2018-11-05T07:00:47.192Z,160.27
2018-11-05T07:03:15.917Z,146.93
2018-11-05T07:05:44.613Z,178.87
2018-11-05T07:08:13.317Z,144.90
2018-11-05T07:10:42.024Z,161.67
2018-11-05T07:13:10.797Z,153.03
2018-11-05T07:15:39.453Z,141.87
2018-11-05T07:18:08.244Z,130.53
2018-11-05T07:20:36.909Z,135.67
2018-11-05T07:23:05.898Z,142.93
2018-11-05T07:25:34.490Z,142.93
2018-11-05T07:28:03.081Z,137.90
2018-11-05T07:30:31.743Z,133.40
2018-11-05T07:33:00.433Z,113.30
2018-11-05T07:35:29.173Z,124.30
2018-11-05T07:37:58.400Z,132.37
2018-11-05T07:40:27.094Z,128.00
2018-11-05T07:42:55.743Z,112.40
2018-11-05T07:45:24.881Z,112.67
2018-11-05T07:47:53.552Z,121.00
2018-11-05T07:50:22.681Z,120.17
2018-11-05T07:52:51.916Z,108.63
2018-11-05T07:55:20.683Z,96.83
2018-11-05T07:57:51.013Z,108.30
2018-11-05T08:00:24.891Z,111.13
2018-11-05T08:02:54.904Z,111.07
2018-11-05T08:05:24.289Z,124.50
2018-11-05T08:07:52.988Z,100.33
2018-11-05T08:10:21.741Z,83.87
2018-11-05T08:12:50.529Z,98.23
2018-11-05T08:15:20.499Z,95.80
2018-11-05T08:17:50.153Z,95.83
2018-11-05T08:20:18.873Z,100.87
2018-11-05T08:22:47.545Z,111.77
2018-11-05T08:25:16.935Z,104.27
2018-11-05T08:27:45.644Z,95.13
2018-11-05T08:30:16.987Z,89.50
2018-11-05T08:32:45.591Z,85.63
2018-11-05T08:35:14.711Z,92.17
2018-11-05T08:37:44.523Z,91.37
2018-11-05T08:40:15.522Z,87.87
2018-11-05T08:42:44.946Z,86.93
2018-11-05T08:45:14.979Z,82.70
2018-11-05T08:47:43.713Z,84.47
2018-11-05T08:50:13.841Z,81.50
2018-11-05T08:52:42.588Z,85.17
2018-11-05T08:55:13.677Z,77.20
2018-11-05T08:57:42.812Z,80.40
2018-11-05T09:00:16.133Z,73.20
2018-11-05T09:02:45.929Z,73.97
2018-11-05T09:05:15.075Z,67.87
2018-11-05T09:07:44.518Z,73.37
2018-11-05T09:10:13.418Z,69.60
2018-11-05T09:12:42.282Z,79.47
2018-11-05T09:15:13.089Z,70.13
2018-11-05T09:17:42.523Z,68.80
2018-11-05T09:20:12.480Z,62.30
2018-11-05T09:22:41.188Z,75.13
2018-11-05T09:25:10.831Z,64.67
2018-11-05T09:27:39.551Z,65.60
2018-11-05T09:30:12.541Z,65.30
2018-11-05T09:32:41.349Z,63.47
2018-11-05T09:35:10.482Z,69.17
2018-11-05T09:37:39.480Z,63.00
2018-11-05T09:40:10.472Z,67.30
2018-11-05T09:42:39.955Z,59.57
2018-11-05T09:45:12.925Z,54.27
2018-11-05T09:47:41.892Z,54.60
2018-11-05T09:50:11.116Z,60.10
2018-11-05T09:52:39.889Z,56.77
2018-11-05T09:55:09.512Z,57.73
2018-11-05T09:57:38.179Z,56.00
2018-11-05T10:00:10.468Z,50.40
2018-11-05T10:02:44.569Z,55.80
2018-11-05T10:05:14.085Z,51.47
2018-11-05T10:07:42.984Z,51.83
2018-11-05T10:10:12.657Z,54.83
2018-11-05T10:12:41.543Z,54.10
2018-11-05T10:15:11.462Z,46.27
2018-11-05T10:17:40.588Z,48.57
2018-11-05T10:20:11.738Z,53.80
2018-11-05T10:22:40.445Z,46.67
2018-11-05T10:25:10.587Z,53.60
2018-11-05T10:27:39.226Z,50.40
2018-11-05T10:30:11.216Z,55.90
2018-11-05T10:32:40.191Z,46.20
2018-11-05T10:35:08.971Z,50.20
2018-11-05T10:37:37.793Z,44.93
2018-11-05T10:40:09.287Z,48.27
2018-11-05T10:42:37.924Z,45.67
2018-11-05T10:45:07.723Z,48.97
2018-11-05T10:47:36.707Z,45.10
2018-11-05T10:50:05.722Z,52.53
2018-11-05T10:52:34.413Z,46.43
2018-11-05T10:55:03.162Z,45.80
2018-11-05T10:57:31.996Z,48.03
2018-11-05T11:00:00.560Z,46.47
2018-11-05T11:02:34.518Z,45.50
2018-11-05T11:05:03.230Z,45.27
2018-11-05T11:07:31.890Z,47.50
2018-11-05T11:10:00.516Z,45.10
2018-11-05T11:12:29.158Z,42.47
2018-11-05T11:14:57.843Z,48.20
2018-11-05T11:17:26.509Z,43.47
2018-11-05T11:19:55.166Z,43.40
2018-11-05T11:22:23.865Z,42.93
2018-11-05T11:24:52.548Z,43.77
2018-11-05T11:27:21.160Z,41.87
2018-11-05T11:29:49.799Z,44.07
2018-11-05T11:32:18.494Z,45.93
2018-11-05T11:34:47.197Z,41.73
2018-11-05T11:37:15.848Z,43.27
2018-11-05T11:39:44.508Z,46.97
2018-11-05T11:42:13.204Z,45.43
2018-11-05T11:44:41.845Z,41.93
2018-11-05T11:47:10.487Z,37.67
2018-11-05T11:49:39.170Z,40.40
2018-11-05T11:52:08.213Z,38.80
2018-11-05T11:54:36.882Z,38.97
2018-11-05T11:57:05.976Z,40.10
2018-11-05T11:59:34.717Z,38.93
2018-11-05T12:02:08.774Z,40.33
2018-11-05T12:04:37.401Z,36.37
2018-11-05T12:07:06.743Z,40.10
2018-11-05T12:09:35.443Z,39.23
2018-11-05T12:12:04.078Z,37.43
2018-11-05T12:14:32.801Z,36.20
2018-11-05T12:17:01.454Z,45.60
2018-11-05T12:19:30.154Z,39.00
2018-11-05T12:21:58.795Z,35.30
2018-11-05T12:24:27.673Z,40.40
2018-11-05T12:26:56.392Z,43.97
2018-11-05T12:29:25.081Z,36.33
2018-11-05T12:31:53.744Z,38.73
2018-11-05T12:34:22.441Z,40.13
2018-11-05T12:36:51.088Z,43.87
2018-11-05T12:39:19.740Z,38.47
2018-11-05T12:41:48.534Z,37.93
2018-11-05T12:44:17.209Z,40.63
2018-11-05T12:46:45.794Z,38.03
2018-11-05T12:49:14.519Z,38.00
2018-11-05T12:51:43.193Z,38.30
2018-11-05T12:54:11.864Z,35.93
2018-11-05T12:56:40.498Z,35.43
2018-11-05T12:59:09.195Z,41.17
2018-11-05T13:01:37.821Z,35.83
2018-11-05T13:04:06.857Z,39.93
2018-11-05T13:06:35.460Z,37.40
2018-11-05T13:09:05.756Z,37.07
2018-11-05T13:11:34.433Z,39.83
2018-11-05T13:14:03.158Z,36.70
2018-11-05T13:16:31.996Z,37.27
2018-11-05T13:19:00.806Z,38.43
2018-11-05T13:21:29.388Z,40.00
2018-11-05T13:23:58.059Z,34.97
2018-11-05T13:26:26.694Z,35.37
2018-11-05T13:28:55.324Z,38.17
2018-11-05T13:31:24.214Z,35.40
2018-11-05T13:33:52.884Z,37.40
2018-11-05T13:36:21.570Z,40.17
2018-11-05T13:38:50.262Z,36.63
2018-11-05T13:41:18.905Z,35.07
2018-11-05T13:43:47.733Z,38.20
2018-11-05T13:46:16.793Z,39.90
2018-11-05T13:48:45.703Z,38.87
2018-11-05T13:51:13.810Z,37.50
2018-11-05T13:53:42.528Z,35.90
2018-11-05T13:56:11.205Z,33.10
2018-11-05T13:58:39.959Z,38.70
2018-11-05T14:01:08.549Z,33.03
2018-11-05T14:03:37.166Z,37.17
2018-11-05T14:06:05.903Z,32.93
2018-11-05T14:08:34.595Z,38.87
2018-11-05T14:11:03.291Z,37.13
2018-11-05T14:13:31.945Z,37.73
2018-11-05T14:16:00.610Z,36.83
2018-11-05T14:18:29.394Z,35.27
2018-11-05T14:20:58.013Z,39.43
2018-11-05T14:23:26.670Z,35.37
2018-11-05T14:25:55.367Z,33.13
2018-11-05T14:28:24.180Z,35.10
2018-11-05T14:30:52.756Z,33.73
2018-11-05T14:33:21.415Z,36.23
2018-11-05T14:35:50.117Z,34.60
2018-11-05T14:38:18.825Z,33.33
2018-11-05T14:40:47.526Z,31.83
2018-11-05T14:43:16.309Z,36.27
2018-11-05T14:45:44.961Z,32.20
2018-11-05T14:48:13.610Z,36.53
2018-11-05T14:50:42.343Z,39.90
2018-11-05T14:53:10.982Z,39.20
2018-11-05T14:55:39.685Z,30.67
2018-11-05T14:58:08.296Z,34.73
2018-11-05T15:00:36.995Z,32.50
2018-11-05T15:03:05.781Z,37.50
2018-11-05T15:05:34.441Z,35.60
2018-11-05T15:08:03.137Z,32.83
2018-11-05T15:10:31.834Z,32.80
2018-11-05T15:13:00.656Z,34.20
2018-11-05T15:15:29.353Z,34.47
2018-11-05T15:17:58.023Z,34.13
2018-11-05T15:20:26.783Z,34.90
2018-11-05T15:22:55.464Z,37.17
2018-11-05T15:25:24.130Z,34.90
2018-11-05T15:27:52.791Z,39.40
2018-11-05T15:30:22.737Z,40.00
2018-11-05T15:32:51.456Z,37.73
2018-11-05T15:35:20.109Z,38.87
2018-11-05T15:37:48.823Z,36.20
2018-11-05T15:40:18.874Z,36.87
2018-11-05T15:42:47.593Z,36.70
2018-11-05T15:45:17.458Z,40.67
2018-11-05T15:47:46.142Z,43.80
2018-11-05T15:50:16.056Z,39.90
2018-11-05T15:52:45.141Z,37.30
2018-11-05T15:55:13.850Z,41.10
2018-11-05T15:57:42.493Z,43.60
2018-11-05T16:00:18.393Z,49.40
2018-11-05T16:02:49.511Z,45.23
2018-11-05T16:05:18.557Z,44.70
2018-11-05T16:07:47.401Z,44.67
2018-11-05T16:10:16.441Z,41.97
2018-11-05T16:12:45.081Z,47.97
2018-11-05T16:15:14.056Z,47.23
2018-11-05T16:17:42.710Z,50.53
2018-11-05T16:20:21.813Z,52.33
2018-11-05T16:22:51.261Z,51.73
2018-11-05T16:25:20.002Z,53.20
2018-11-05T16:27:48.730Z,55.77
2018-11-05T16:30:18.830Z,52.57
2018-11-05T16:32:48.096Z,53.57
2018-11-05T16:35:16.840Z,47.80
2018-11-05T16:37:45.553Z,56.33
2018-11-05T16:40:15.522Z,51.80
2018-11-05T16:42:45.016Z,60.30
2018-11-05T16:45:13.729Z,49.10
2018-11-05T16:47:42.677Z,49.37
2018-11-05T16:50:13.165Z,55.23
2018-11-05T16:52:41.777Z,46.63
2018-11-05T16:55:12.089Z,55.63
2018-11-05T16:57:41.374Z,52.20
2018-11-05T17:00:10.368Z,48.50
2018-11-05T17:02:39.211Z,50.37
2018-11-05T17:05:07.845Z,65.30
2018-11-05T17:07:36.515Z,64.53
2018-11-05T17:10:06.353Z,58.30
2018-11-05T17:12:35.021Z,55.33
2018-11-05T17:15:03.716Z,64.43
2018-11-05T17:17:32.309Z,68.70
2018-11-05T17:20:01.041Z,60.73
2018-11-05T17:22:29.842Z,65.93
2018-11-05T17:24:58.520Z,68.70
2018-11-05T17:27:27.220Z,60.63
2018-11-05T17:29:55.941Z,70.70
2018-11-05T17:32:24.571Z,82.00
2018-11-05T17:34:53.184Z,64.70
2018-11-05T17:37:21.887Z,76.33
2018-11-05T17:39:50.573Z,70.40
2018-11-05T17:42:19.261Z,63.37
2018-11-05T17:44:47.932Z,65.53
2018-11-05T17:47:16.637Z,72.10
2018-11-05T17:49:45.394Z,63.00
2018-11-05T17:52:14.204Z,63.43
2018-11-05T17:54:42.902Z,66.53
2018-11-05T17:57:11.572Z,72.00
2018-11-05T17:59:40.366Z,71.70
2018-11-05T18:02:13.309Z,62.13
2018-11-05T18:04:42.035Z,66.90
2018-11-05T18:07:10.776Z,62.10
2018-11-05T18:09:39.571Z,61.87
2018-11-05T18:12:08.317Z,70.07
2018-11-05T18:14:37.004Z,67.77
2018-11-05T18:17:05.968Z,76.70
2018-11-05T18:19:34.637Z,80.63
2018-11-05T18:22:03.337Z,79.77
2018-11-05T18:24:32.120Z,77.33
2018-11-05T18:27:00.708Z,77.23
2018-11-05T18:29:29.378Z,80.47
2018-11-05T18:31:58.048Z,84.93
2018-11-05T18:34:26.752Z,77.47
2018-11-05T18:36:55.380Z,76.27
2018-11-05T18:39:24.089Z,70.90
2018-11-05T18:41:52.748Z,73.40
2018-11-05T18:44:21.373Z,76.50
2018-11-05T18:46:50.053Z,81.43
2018-11-05T18:49:18.770Z,74.77
2018-11-05T18:51:47.589Z,96.77
2018-11-05T18:54:16.109Z,89.47
2018-11-05T18:56:44.792Z,80.60
2018-11-05T18:59:13.413Z,87.30
2018-11-05T19:01:42.105Z,81.27
2018-11-05T19:04:10.771Z,77.67
2018-11-05T19:06:39.403Z,92.70
2018-11-05T19:09:08.053Z,86.90
2018-11-05T19:11:36.684Z,80.63
2018-11-05T19:14:05.909Z,79.17
2018-11-05T19:16:34.526Z,82.73
2018-11-05T19:19:03.161Z,87.80
2018-11-05T19:21:31.878Z,76.77
2018-11-05T19:24:00.752Z,79.67
2018-11-05T19:26:29.179Z,90.73
2018-11-05T19:28:57.833Z,82.60
2018-11-05T19:31:26.493Z,89.30
2018-11-05T19:33:55.171Z,85.77
2018-11-05T19:36:23.777Z,85.60
2018-11-05T19:38:52.441Z,95.43
2018-11-05T19:41:21.044Z,91.53
2018-11-05T19:43:49.754Z,99.57
2018-11-05T19:46:18.368Z,85.90
2018-11-05T19:48:46.949Z,78.90
2018-11-05T19:51:15.599Z,91.23
2018-11-05T19:53:44.282Z,85.03
2018-11-05T19:56:13.007Z,89.33
2018-11-05T19:58:41.697Z,92.03
2018-11-05T20:01:10.430Z,96.73
2018-11-05T20:03:39.200Z,88.37
2018-11-05T20:06:07.986Z,89.43
2018-11-05T20:08:36.623Z,79.33
2018-11-05T20:11:05.809Z,94.00
2018-11-05T20:13:34.622Z,86.50
2018-11-05T20:16:03.392Z,84.60
2018-11-05T20:18:32.148Z,83.03
2018-11-05T20:21:00.729Z,85.87
2018-11-05T20:23:29.400Z,88.10
2018-11-05T20:25:58.144Z,95.97
2018-11-05T20:28:27.000Z,94.03
2018-11-05T20:30:55.778Z,87.30
2018-11-05T20:33:24.736Z,89.43
2018-11-05T20:35:53.247Z,95.33
2018-11-05T20:38:21.958Z,88.63
2018-11-05T20:40:50.747Z,87.20
2018-11-05T20:43:19.557Z,83.97
2018-11-05T20:45:48.341Z,82.20
2018-11-05T20:48:17.066Z,87.37
2018-11-05T20:50:46.127Z,84.03
2018-11-05T20:53:15.049Z,82.27
2018-11-05T20:55:43.831Z,85.93
2018-11-05T20:58:12.682Z,94.30
2018-11-05T21:00:41.440Z,78.10
2018-11-05T21:03:10.080Z,77.40
2018-11-05T21:05:38.799Z,91.20
2018-11-05T21:08:07.499Z,75.53
2018-11-05T21:10:36.275Z,78.00
2018-11-05T21:13:05.043Z,81.47
2018-11-05T21:15:33.778Z,84.93
2018-11-05T21:18:02.496Z,80.83
2018-11-05T21:20:31.166Z,78.50
2018-11-05T21:22:59.840Z,95.10
2018-11-05T21:25:28.548Z,94.37
2018-11-05T21:27:58.138Z,99.83
2018-11-05T21:30:26.860Z,90.80
2018-11-05T21:32:55.578Z,78.60
2018-11-05T21:35:24.303Z,94.30
2018-11-05T21:37:52.965Z,112.87
2018-11-05T21:40:21.648Z,109.87
2018-11-05T21:42:50.350Z,110.03
2018-11-05T21:45:19.049Z,86.17
2018-11-05T21:47:47.736Z,90.30
2018-11-05T21:50:17.686Z,94.20
2018-11-05T21:52:46.773Z,101.50
2018-11-05T21:55:15.420Z,90.73
2018-11-05T21:57:45.570Z,98.20
2018-11-05T22:00:17.690Z,96.80
2018-11-05T22:02:51.520Z,87.60
2018-11-05T22:05:20.194Z,87.00
2018-11-05T22:07:49.013Z,93.60
2018-11-05T22:10:17.801Z,82.17
2018-11-05T22:12:46.914Z,98.30
2018-11-05T22:15:15.572Z,102.20
2018-11-05T22:17:44.249Z,86.03
2018-11-05T22:20:13.332Z,91.70
2018-11-05T22:22:42.092Z,86.80
2018-11-05T22:25:11.381Z,98.50
2018-11-05T22:27:40.608Z,79.70
2018-11-05T22:30:10.423Z,82.10
2018-11-05T22:32:39.141Z,97.70
2018-11-05T22:35:08.041Z,95.00
2018-11-05T22:37:36.983Z,74.67
2018-11-05T22:40:07.849Z,82.00
2018-11-05T22:42:36.539Z,82.37
2018-11-05T22:45:05.478Z,81.67
2018-11-05T22:47:34.179Z,83.87
2018-11-05T22:50:02.970Z,78.77
2018-11-05T22:52:31.716Z,75.57
2018-11-05T22:55:00.541Z,92.53
2018-11-05T22:57:29.270Z,78.13
2018-11-05T22:59:58.086Z,81.67
2018-11-05T23:02:26.729Z,76.10
2018-11-05T23:04:55.461Z,80.00
2018-11-05T23:07:24.148Z,86.33
2018-11-05T23:09:52.949Z,97.20
2018-11-05T23:12:21.758Z,85.40
2018-11-05T23:14:50.423Z,86.93
2018-11-05T23:17:19.195Z,75.00
2018-11-05T23:19:47.966Z,81.93
2018-11-05T23:22:16.830Z,83.50
2018-11-05T23:24:45.507Z,77.77
2018-11-05T23:27:14.311Z,75.60
2018-11-05T23:29:43.024Z,69.43
2018-11-05T23:32:11.697Z,81.67
2018-11-05T23:34:40.471Z,72.83
2018-11-05T23:37:09.267Z,71.53
2018-11-05T23:39:37.994Z,85.00
2018-11-05T23:42:06.897Z,78.03
2018-11-05T23:44:36.703Z,79.07
2018-11-05T23:47:05.556Z,99.30
2018-11-05T23:49:34.441Z,91.20
2018-11-05T23:52:03.191Z,96.30
2018-11-05T23:54:32.781Z,79.00
2018-11-05T23:57:02.169Z,77.53
2018-11-05T23:59:31.166Z,77.97
